Time;durP1;ratioP1;P1;durP2;ratioP2;P2;SDS_P1;SDS_P2;PMS_P1;PMS_P2;Temp;Humidity;BMP_temperature;BMP_pressure;BME280_temperature;BME280_humidity;BME280_pressure;Samples;Min_cycle;Max_cycle;Signal;HPM_P1;HPM_P2
2022/10/01 00:00:59;;;;;;;7.25;5.80;;;;;;;10.54;nan;100112.16;4919508;29;20922;-67
2022/10/01 00:03:24;;;;;;;;;;;;;;;10.46;nan;100109.47;4919436;28;20043;-66
2022/10/01 00:05:59;;;;;;;10.60;7.03;;;;;;;10.42;nan;100111.63;4928235;28;19927;-67
2022/10/01 00:08:26;;;;;;;9.88;6.72;;;;;;;10.40;nan;100117.06;4916807;28;20233;-67
2022/10/01 00:10:52;;;;;;;7.65;6.20;;;;;;;10.48;nan;100120.72;4930667;28;20728;-67
2022/10/01 00:13:17;;;;;;;9.68;6.70;;;;;;;10.41;nan;100118.72;4914345;29;20107;-67
2022/10/01 00:15:43;;;;;;;7.75;6.18;;;;;;;10.47;nan;100119.91;4922132;28;20438;-67
2022/10/01 00:18:09;;;;;;;6.50;5.50;;;;;;;10.51;nan;100128.31;4915920;28;20488;-67
2022/10/01 00:20:37;;;;;;;7.80;6.10;;;;;;;10.53;nan;100127.16;4932275;28;20413;-67
2022/10/01 00:23:03;;;;;;;8.55;6.13;;;;;;;10.46;nan;100125.34;4925064;29;20551;-66
2022/10/01 00:25:29;;;;;;;10.80;6.68;;;;;;;10.43;nan;100128.31;4917650;29;20063;-67
2022/10/01 00:27:55;;;;;;;7.88;6.22;;;;;;;10.37;nan;100127.97;4919838;28;20036;-67
2022/10/01 00:30:20;;;;;;;11.15;7.60;;;;;;;10.35;nan;100119.38;4927882;28;20077;-67
2022/10/01 00:32:45;;;;;;;10.50;7.25;;;;;;;10.34;nan;100133.56;4924488;28;20525;-67
2022/10/01 00:35:11;;;;;;;7.97;6.77;;;;;;;10.34;nan;100127.44;4916585;29;20497;-66
2022/10/01 00:37:36;;;;;;;7.68;6.03;;;;;;;10.28;nan;100131.56;4920019;29;20292;-66
2022/10/01 00:40:03;;;;;;;8.85;6.95;;;;;;;10.25;nan;100116.00;4918820;28;20040;-69
2022/10/01 00:42:29;;;;;;;9.80;7.47;;;;;;;10.24;nan;100118.78;4933264;28;20051;-66
2022/10/01 00:44:55;;;;;;;8.75;6.75;;;;;;;10.21;nan;100117.31;4912009;29;20039;-66
2022/10/01 00:47:23;;;;;;;8.35;6.30;;;;;;;10.17;nan;100115.97;4927206;28;20050;-66
2022/10/01 00:49:52;;;;;;;7.88;6.18;;;;;;;10.13;nan;100109.31;4920092;29;20099;-66
2022/10/01 00:52:23;;;;;;;7.72;6.40;;;;;;;10.10;nan;100107.84;4923276;28;20134;-67
2022/10/01 00:54:57;;;;;;;7.22;6.18;;;;;;;10.12;nan;100107.69;4916793;29;20068;-67
2022/10/01 00:57:25;;;;;;;10.63;6.40;;;;;;;10.11;nan;100103.41;4918903;29;20040;-67
2022/10/01 00:59:52;;;;;;;8.68;5.80;;;;;;;10.11;nan;100106.03;4924279;29;20062;-66
2022/10/01 01:02:17;;;;;;;8.77;6.18;;;;;;;10.11;nan;100098.94;4917053;28;20047;-67
2022/10/01 01:04:43;;;;;;;8.13;5.72;;;;;;;10.11;nan;100109.50;4926188;28;20551;-67
2022/10/01 01:07:09;;;;;;;8.00;5.68;;;;;;;10.09;nan;100103.56;4924209;28;20041;-67
2022/10/01 01:09:37;;;;;;;;;;;;;;;10.11;nan;100103.41;4927592;28;20051;-66
2022/10/01 01:12:21;;;;;;;7.50;5.22;;;;;;;10.11;nan;100104.22;4911941;29;19919;-67
2022/10/01 01:15:26;;;;;;;6.88;5.45;;;;;;;10.19;nan;100085.75;4917465;29;20047;-67
2022/10/01 01:18:08;;;;;;;8.23;5.78;;;;;;;10.20;nan;100084.78;4919569;28;20103;-67
2022/10/01 01:21:06;;;;;;;7.32;5.50;;;;;;;10.25;nan;100083.44;4930776;28;20058;-67
2022/10/01 01:23:43;;;;;;;5.45;4.75;;;;;;;10.28;nan;100078.72;4913037;29;20060;-67
2022/10/01 01:26:35;;;;;;;7.82;5.03;;;;;;;10.29;nan;100075.06;4927632;28;20043;-66
2022/10/01 01:29:03;;;;;;;;;;;;;;;10.31;nan;100088.13;4892904;29;20058;-66
2022/10/01 01:31:38;;;;;;;6.63;5.30;;;;;;;10.30;nan;100079.38;4923935;28;19925;-67
2022/10/01 01:34:11;;;;;;;8.10;5.03;;;;;;;10.35;nan;100077.06;4914038;29;20395;-66
2022/10/01 01:36:42;;;;;;;6.18;4.78;;;;;;;10.36;nan;100083.19;4917049;29;20114;-66
2022/10/01 01:39:11;;;;;;;7.22;5.20;;;;;;;10.39;nan;100073.13;4912161;29;20036;-66
2022/10/01 01:41:42;;;;;;;6.10;4.60;;;;;;;10.40;nan;100077.41;4915768;29;20474;-66
2022/10/01 01:44:11;;;;;;;;;;;;;;;10.39;nan;100067.84;4920129;28;20076;-67
2022/10/01 01:46:40;;;;;;;5.78;4.43;;;;;;;10.38;nan;100063.53;4923334;29;19925;-67
2022/10/01 01:49:06;;;;;;;7.07;4.65;;;;;;;10.36;nan;100059.41;4910516;29;20071;-66
2022/10/01 01:51:44;;;;;;;7.20;4.60;;;;;;;10.35;nan;100058.59;4916306;28;20119;-67
2022/10/01 01:54:09;;;;;;;;;;;;;;;10.34;nan;100061.38;4931842;28;20039;-67
2022/10/01 01:56:34;;;;;;;6.37;4.67;;;;;;;10.31;nan;100064.34;4924983;28;19928;-66
2022/10/01 01:59:00;;;;;;;8.77;4.72;;;;;;;10.27;nan;100066.44;4917769;28;20094;-67
2022/10/01 02:01:38;;;;;;;5.95;4.40;;;;;;;10.25;nan;100065.78;4915401;28;20477;-67
2022/10/01 02:04:17;;;;;;;7.45;4.85;;;;;;;10.26;nan;100069.25;4923356;28;20096;-67
2022/10/01 02:06:53;;;;;;;5.60;4.35;;;;;;;10.23;nan;100062.47;4913121;29;20066;-67
2022/10/01 02:09:37;;;;;;;7.28;4.40;;;;;;;10.25;nan;100057.88;4933094;28;20039;-67
2022/10/01 02:12:28;;;;;;;7.28;4.80;;;;;;;10.23;nan;100059.03;4911347;29;20051;-68
2022/10/01 02:14:57;;;;;;;8.07;4.88;;;;;;;10.21;nan;100062.63;4922982;28;20341;-66
2022/10/01 02:17:49;;;;;;;5.57;4.50;;;;;;;10.21;nan;100059.19;4918799;28;20188;-67
2022/10/01 02:20:19;;;;;;;5.00;3.80;;;;;;;10.31;nan;100054.59;4928926;28;20427;-67
2022/10/01 02:22:57;;;;;;;5.60;3.97;;;;;;;10.26;nan;100051.59;4921502;28;20048;-66
2022/10/01 02:25:27;;;;;;;5.75;4.10;;;;;;;10.24;nan;100047.44;4927421;29;20146;-67
2022/10/01 02:28:15;;;;;;;5.85;4.30;;;;;;;10.18;nan;100046.28;4919734;28;20636;-66
2022/10/01 02:30:43;;;;;;;5.93;4.45;;;;;;;10.21;nan;100051.25;4938040;28;20047;-67
2022/10/01 02:33:12;;;;;;;5.45;3.72;;;;;;;10.20;nan;100049.56;4924901;28;20054;-67
2022/10/01 02:35:41;;;;;;;5.00;3.95;;;;;;;10.18;nan;100057.69;4916273;29;20458;-67
2022/10/01 02:38:09;;;;;;;5.32;3.92;;;;;;;10.18;nan;100052.41;4927738;28;20052;-67
2022/10/01 02:40:38;;;;;;;7.10;4.10;;;;;;;10.16;nan;100042.97;4926214;28;20038;-67
2022/10/01 02:43:20;;;;;;;5.32;3.95;;;;;;;10.15;nan;100049.22;4931534;28;20442;-67
2022/10/01 02:45:54;;;;;;;4.68;3.55;;;;;;;10.15;nan;100043.94;4932251;28;20405;-67
2022/10/01 02:48:19;;;;;;;5.75;4.07;;;;;;;10.14;nan;100043.13;4917448;29;20351;-67
2022/10/01 02:50:56;;;;;;;4.85;3.72;;;;;;;10.16;nan;100030.59;4921937;28;20040;-66
2022/10/01 02:53:24;;;;;;;;;;;;;;;10.12;nan;100023.97;4924222;28;20119;-66
2022/10/01 02:55:51;;;;;;;6.32;3.47;;;;;;;10.16;nan;100025.31;4913068;29;20006;-67
2022/10/01 02:58:18;;;;;;;4.65;3.55;;;;;;;10.14;nan;100024.63;4922199;28;20365;-67
2022/10/01 03:00:44;;;;;;;4.55;3.65;;;;;;;10.16;nan;100017.38;4931932;28;20473;-67
2022/10/01 03:03:09;;;;;;;;;;;;;;;10.16;nan;100019.19;4925588;28;20072;-67
2022/10/01 03:05:34;;;;;;;4.97;3.80;;;;;;;10.18;nan;100018.03;4927882;28;19985;-66
2022/10/01 03:08:00;;;;;;;9.15;3.75;;;;;;;10.19;nan;100021.50;4921235;29;20445;-67
2022/10/01 03:10:25;;;;;;;5.80;3.70;;;;;;;10.23;nan;100016.75;4927253;28;21010;-67
2022/10/01 03:12:50;;;;;;;4.60;3.70;;;;;;;10.25;nan;100012.94;4917466;28;20032;-67
2022/10/01 03:15:20;;;;;;;4.38;3.20;;;;;;;10.29;nan;100014.28;4927377;28;20052;-67
2022/10/01 03:17:50;;;;;;;3.97;3.40;;;;;;;10.31;nan;100006.22;4924520;29;20123;-67
2022/10/01 03:20:15;;;;;;;4.70;3.45;;;;;;;10.32;nan;99998.13;4919734;28;20055;-66
2022/10/01 03:22:43;;;;;;;4.65;3.75;;;;;;;10.33;nan;100002.41;4920957;28;20393;-67
2022/10/01 03:25:09;;;;;;;5.10;3.60;;;;;;;10.33;nan;99999.78;4933023;28;20032;-67
2022/10/01 03:27:34;;;;;;;6.25;3.50;;;;;;;10.38;nan;99986.06;4923147;28;20634;-67
2022/10/01 03:29:59;;;;;;;4.50;3.28;;;;;;;10.39;nan;99991.19;4934785;29;20059;-67
2022/10/01 03:32:25;;;;;;;5.15;3.30;;;;;;;10.41;nan;99985.72;4933804;28;20127;-67
2022/10/01 03:34:50;;;;;;;5.30;3.40;;;;;;;10.43;nan;99996.16;4921626;28;20388;-67
2022/10/01 03:37:15;;;;;;;5.25;3.40;;;;;;;10.49;nan;99971.72;4925696;28;20095;-66
2022/10/01 03:39:40;;;;;;;;;;;;;;;10.48;nan;99975.34;4922945;29;20040;-66
2022/10/01 03:42:05;;;;;;;;;;;;;;;10.47;nan;99974.50;4913541;29;20289;-68
2022/10/01 03:44:31;;;;;;;;;;;;;;;10.51;nan;99975.00;4925479;28;20315;-67
2022/10/01 03:46:56;;;;;;;;;;;;;;;10.51;nan;99964.41;4923575;28;19922;-66
2022/10/01 03:49:21;;;;;;;;;;;;;;;10.55;nan;99963.09;4918091;29;20015;-66
2022/10/01 03:51:46;;;;;;;4.73;2.73;;;;;;;10.61;nan;99965.09;4927346;28;19970;-67
2022/10/01 03:54:12;;;;;;;5.70;3.08;;;;;;;10.63;nan;99971.88;4925808;28;20197;-67
2022/10/01 03:56:39;;;;;;;;;;;;;;;10.64;nan;99964.75;4930065;28;20055;-66
2022/10/01 03:59:05;;;;;;;5.00;3.10;;;;;;;10.68;nan;99965.25;4927006;28;19982;-66
2022/10/01 04:01:30;;;;;;;4.43;2.92;;;;;;;10.71;nan;99963.09;4920865;28;20031;-66
2022/10/01 04:03:55;;;;;;;3.42;2.50;;;;;;;10.77;nan;99961.59;4921661;29;20043;-66
2022/10/01 04:06:21;;;;;;;3.67;2.33;;;;;;;10.79;nan;99965.72;4929020;28;20043;-67
2022/10/01 04:08:46;;;;;;;3.83;2.50;;;;;;;10.81;nan;99955.81;4925466;28;20299;-67
2022/10/01 04:11:11;;;;;;;3.60;2.33;;;;;;;10.80;nan;99951.53;4915099;28;20361;-67
2022/10/01 04:13:37;;;;;;;4.03;2.63;;;;;;;10.83;nan;99958.31;4920795;28;20031;-66
2022/10/01 04:16:03;;;;;;;3.42;2.40;;;;;;;10.83;nan;99960.94;4913541;29;20036;-68
2022/10/01 04:18:29;;;;;;;3.50;2.25;;;;;;;10.74;nan;99961.94;4930854;28;20035;-67
2022/10/01 04:20:54;;;;;;;3.47;2.38;;;;;;;10.51;nan;99965.28;4926001;28;20548;-67
2022/10/01 04:23:19;;;;;;;4.43;2.57;;;;;;;10.34;nan;99966.22;4916211;29;20524;-67
2022/10/01 04:25:44;;;;;;;2.50;2.08;;;;;;;10.25;nan;99969.81;4924378;29;20292;-67
2022/10/01 04:28:11;;;;;;;3.95;2.38;;;;;;;10.16;nan;99975.09;4922994;28;20043;-67
2022/10/01 04:30:39;;;;;;;3.30;2.38;;;;;;;10.09;nan;99971.47;4932797;28;20127;-67
2022/10/01 04:33:06;;;;;;;3.15;2.40;;;;;;;10.00;nan;99980.34;4914728;29;20506;-66
2022/10/01 04:35:32;;;;;;;4.28;2.60;;;;;;;9.89;nan;99970.94;4933982;28;20028;-66
2022/10/01 04:38:02;;;;;;;4.93;2.50;;;;;;;9.88;nan;99973.72;4918983;29;20039;-67
2022/10/01 04:40:28;;;;;;;5.40;3.03;;;;;;;9.84;nan;99975.03;4926973;28;20385;-67
2022/10/01 04:42:53;;;;;;;4.32;2.97;;;;;;;9.80;nan;99969.25;4925332;29;20055;-67
2022/10/01 04:45:18;;;;;;;6.03;2.80;;;;;;;9.77;nan;99964.28;4926067;28;20043;-67
2022/10/01 04:47:51;;;;;;;3.53;2.47;;;;;;;9.72;nan;99962.09;4929881;28;20119;-67
2022/10/01 04:50:17;;;;;;;3.45;2.60;;;;;;;9.71;nan;99975.50;4918430;28;20043;-68
2022/10/01 04:52:43;;;;;;;4.22;2.65;;;;;;;9.66;nan;99967.22;4919066;29;20123;-67
2022/10/01 04:55:08;;;;;;;3.42;2.70;;;;;;;9.60;nan;99960.75;4917519;29;20111;-68
2022/10/01 04:57:35;;;;;;;4.10;2.67;;;;;;;9.55;nan;99963.88;4940244;28;20161;-68
2022/10/01 05:00:02;;;;;;;4.57;3.00;;;;;;;9.53;nan;99962.38;4925354;28;20089;-68
2022/10/01 05:02:28;;;;;;;3.67;2.50;;;;;;;9.51;nan;99962.56;4923641;28;20076;-67
2022/10/01 05:04:53;;;;;;;6.03;2.88;;;;;;;9.53;nan;99962.38;4929625;28;20126;-68
2022/10/01 05:07:18;;;;;;;3.20;2.50;;;;;;;9.52;nan;99948.34;4927600;28;20047;-68
2022/10/01 05:09:44;;;;;;;7.03;3.13;;;;;;;9.52;nan;99950.16;4923959;28;20040;-68
2022/10/01 05:12:09;;;;;;;4.18;2.92;;;;;;;9.54;nan;99951.66;4914255;29;20044;-68
2022/10/01 05:14:34;;;;;;;4.95;2.80;;;;;;;9.54;nan;99956.94;4922555;28;20090;-68
2022/10/01 05:16:59;;;;;;;6.43;2.85;;;;;;;9.52;nan;99948.34;4925153;28;20134;-67
2022/10/01 05:19:27;;;;;;;4.75;2.97;;;;;;;9.51;nan;99953.78;4933132;29;20534;-68
2022/10/01 05:21:53;;;;;;;5.68;2.85;;;;;;;9.48;nan;99947.00;4920509;28;20036;-67
2022/10/01 05:24:18;;;;;;;3.10;2.67;;;;;;;9.50;nan;99945.03;4920827;29;20446;-68
2022/10/01 05:26:43;;;;;;;5.57;2.70;;;;;;;9.47;nan;99940.09;4916059;29;20042;-67
2022/10/01 05:29:09;;;;;;;4.05;2.70;;;;;;;9.49;nan;99946.03;4935779;28;20036;-67
2022/10/01 05:31:34;;;;;;;3.88;3.05;;;;;;;9.48;nan;99939.09;4923081;28;20048;-67
2022/10/01 05:34:00;;;;;;;5.20;3.20;;;;;;;9.51;nan;99927.38;4916991;29;20042;-68
2022/10/01 05:36:25;;;;;;;3.97;2.83;;;;;;;9.49;nan;99924.94;4911124;29;20127;-68
2022/10/01 05:38:51;;;;;;;4.03;2.80;;;;;;;9.49;nan;99921.47;4920808;28;20047;-67
2022/10/01 05:41:17;;;;;;;4.30;2.58;;;;;;;9.50;nan;99918.66;4921487;28;20654;-67
2022/10/01 05:43:42;;;;;;;3.58;2.78;;;;;;;9.51;nan;99909.75;4922618;29;20050;-68
2022/10/01 05:46:09;;;;;;;3.88;2.78;;;;;;;9.49;nan;99917.00;4925173;28;20515;-67
2022/10/01 05:48:35;;;;;;;5.30;2.70;;;;;;;9.48;nan;99915.34;4920805;29;20044;-67
2022/10/01 05:51:03;;;;;;;3.00;2.70;;;;;;;9.47;nan;99908.41;4921919;28;20042;-67
2022/10/01 05:53:28;;;;;;;3.60;2.75;;;;;;;9.50;nan;99910.72;4917143;28;20032;-67
2022/10/01 05:55:53;;;;;;;3.28;2.47;;;;;;;9.53;nan;99906.94;4934134;28;20039;-68
2022/10/01 05:58:18;;;;;;;5.85;2.78;;;;;;;9.53;nan;99910.44;4919704;28;20044;-67
2022/10/01 06:00:44;;;;;;;5.63;2.88;;;;;;;9.53;nan;99918.34;4932628;28;20445;-67
2022/10/01 06:03:11;;;;;;;3.63;2.40;;;;;;;9.52;nan;99911.41;4929973;28;20032;-67
2022/10/01 06:05:37;;;;;;;4.28;2.53;;;;;;;9.50;nan;99908.09;4922162;29;20100;-67
2022/10/01 06:08:08;;;;;;;3.92;2.95;;;;;;;9.54;nan;99911.25;4941534;28;20067;-68
2022/10/01 06:10:35;;;;;;;4.05;2.80;;;;;;;9.54;nan;99909.44;4924153;29;20035;-67
2022/10/01 06:13:03;;;;;;;4.20;2.67;;;;;;;9.56;nan;99898.72;4927103;28;20042;-67
2022/10/01 06:15:29;;;;;;;5.00;2.80;;;;;;;9.59;nan;99902.84;4915333;28;20048;-67
2022/10/01 06:17:54;;;;;;;4.32;2.70;;;;;;;9.58;nan;99902.00;4937856;28;20071;-67
2022/10/01 06:20:19;;;;;;;3.77;2.37;;;;;;;9.67;nan;99900.22;4918178;28;20504;-67
2022/10/01 06:22:53;;;;;;;3.45;2.55;;;;;;;9.64;nan;99909.28;4928922;28;20039;-67
2022/10/01 06:25:19;;;;;;;5.15;2.65;;;;;;;9.63;nan;99899.75;4922224;29;20052;-67
2022/10/01 06:27:50;;;;;;;2.60;2.20;;;;;;;9.64;nan;99904.00;4919329;28;21090;-67
2022/10/01 06:30:16;;;;;;;3.80;2.65;;;;;;;9.62;nan;99911.25;4929764;28;20135;-67
2022/10/01 06:32:41;;;;;;;;;;;;;;;9.62;nan;99908.63;4927998;28;20039;-67
2022/10/01 06:35:06;;;;;;;;;;;;;;;9.64;nan;99897.91;4943051;28;19952;-67
2022/10/01 06:37:35;;;;;;;;;;;;;;;9.61;nan;99898.25;4923367;29;20435;-66
2022/10/01 06:40:00;;;;;;;3.53;2.40;;;;;;;9.60;nan;99899.22;4937910;28;19925;-67
2022/10/01 06:42:25;;;;;;;;;;;;;;;9.58;nan;99888.81;4934389;29;20644;-67
2022/10/01 06:44:51;;;;;;;;;;;;;;;9.57;nan;99888.00;4937448;28;19926;-67
2022/10/01 06:47:16;;;;;;;6.77;2.80;;;;;;;9.60;nan;99871.00;4936667;28;19982;-67
2022/10/01 06:49:41;;;;;;;3.40;2.40;;;;;;;9.61;nan;99877.13;4938736;28;20567;-67
2022/10/01 06:54:52;;;;;;;3.92;2.58;;;;;;;9.62;nan;99890.16;4936974;28;20094;-67
2022/10/01 06:57:17;;;;;;;;;;;;;;;9.63;nan;99881.25;4941686;28;20035;-67
2022/10/01 06:59:42;;;;;;;3.43;2.73;;;;;;;9.56;nan;99882.88;4938453;28;19925;-67
2022/10/01 07:02:21;;;;;;;5.72;2.60;;;;;;;9.57;nan;99885.34;4943570;28;20035;-67
2022/10/01 07:04:46;;;;;;;4.35;2.55;;;;;;;9.60;nan;99886.84;4932395;29;20047;-67
2022/10/01 07:07:12;;;;;;;3.17;2.40;;;;;;;9.59;nan;99903.69;4929841;29;20461;-67
2022/10/01 07:09:37;;;;;;;5.43;2.97;;;;;;;9.60;nan;99909.78;4932694;28;20028;-67
2022/10/01 07:12:02;;;;;;;4.32;2.80;;;;;;;9.60;nan;99910.59;4936161;28;20595;-67
2022/10/01 07:14:28;;;;;;;4.68;2.58;;;;;;;9.67;nan;99905.50;4922149;29;20381;-67
2022/10/01 07:16:53;;;;;;;;;;;;;;;9.69;nan;99916.72;4923410;29;20036;-67
2022/10/01 07:19:18;;;;;;;4.33;2.60;;;;;;;9.70;nan;99905.16;4925321;29;19939;-67
2022/10/01 07:21:47;;;;;;;4.60;2.90;;;;;;;9.70;nan;99897.25;4932627;28;20079;-67
2022/10/01 07:24:12;;;;;;;3.83;2.80;;;;;;;9.71;nan;99907.66;4942734;28;20283;-67
2022/10/01 07:26:37;;;;;;;4.90;2.70;;;;;;;9.73;nan;99896.94;4938915;28;20127;-67
2022/10/01 07:29:03;;;;;;;;;;;;;;;9.73;nan;99894.31;4939571;28;20440;-67
2022/10/01 07:31:28;;;;;;;3.85;2.55;;;;;;;9.72;nan;99892.66;4945886;28;19926;-67
2022/10/01 07:33:57;;;;;;;4.10;2.97;;;;;;;9.72;nan;99887.38;4931512;28;20036;-67
2022/10/01 07:36:23;;;;;;;5.07;2.90;;;;;;;9.74;nan;99877.47;4931415;28;20138;-67
2022/10/01 07:38:50;;;;;;;4.65;3.08;;;;;;;9.74;nan;99872.19;4934196;28;20118;-67
2022/10/01 07:41:16;;;;;;;5.97;3.13;;;;;;;9.72;nan;99871.53;4933306;28;20293;-67
2022/10/01 07:43:42;;;;;;;4.78;2.97;;;;;;;9.75;nan;99881.78;4937975;28;20043;-67
2022/10/01 07:46:08;;;;;;;5.75;3.17;;;;;;;9.75;nan;99885.25;4921510;28;20036;-67
2022/10/01 07:48:33;;;;;;;4.68;2.80;;;;;;;9.78;nan;99879.63;4927777;28;20039;-67
2022/10/01 07:50:59;;;;;;;3.28;2.83;;;;;;;9.79;nan;99891.81;4939202;28;20122;-67
2022/10/01 07:53:24;;;;;;;3.90;2.70;;;;;;;9.82;nan;99895.97;4927188;28;20042;-67
2022/10/01 07:55:49;;;;;;;4.30;2.70;;;;;;;9.82;nan;99882.78;4946382;28;20039;-66
2022/10/01 07:58:15;;;;;;;3.27;2.50;;;;;;;9.90;nan;99889.88;4928531;29;20428;-67
2022/10/01 08:00:42;;;;;;;5.03;3.00;;;;;;;9.93;nan;99897.47;4936816;28;20040;-67
2022/10/01 08:03:07;;;;;;;;;;;;;;;9.92;nan;99891.38;4929517;28;20068;-66
2022/10/01 08:05:34;;;;;;;;;;;;;;;9.93;nan;99889.56;4937759;28;19969;-67
2022/10/01 08:08:07;;;;;;;3.80;2.90;;;;;;;9.91;nan;99879.13;4948400;28;19945;-66
2022/10/01 08:10:35;;;;;;;5.82;2.90;;;;;;;9.87;nan;99872.56;4930429;29;20046;-67
2022/10/01 08:13:07;;;;;;;;;;;;;;;9.88;nan;99889.22;4938393;28;20559;-66
2022/10/01 08:15:33;;;;;;;3.22;2.60;;;;;;;9.90;nan;99888.06;4923142;29;19914;-66
2022/10/01 08:18:02;;;;;;;4.10;2.90;;;;;;;9.91;nan;99899.44;4934693;28;20249;-66
2022/10/01 08:20:27;;;;;;;5.18;3.10;;;;;;;9.93;nan;99902.75;4924082;28;20724;-66
2022/10/01 08:22:53;;;;;;;3.70;2.88;;;;;;;9.96;nan;99905.06;4942594;28;20043;-67
2022/10/01 08:25:18;;;;;;;3.92;2.70;;;;;;;9.93;nan;99906.22;4944810;28;20036;-67
2022/10/01 08:27:43;;;;;;;6.00;2.87;;;;;;;9.93;nan;99900.13;4934792;28;20090;-67
2022/10/01 08:30:09;;;;;;;4.93;3.05;;;;;;;9.96;nan;99898.00;4948648;28;20303;-67
2022/10/01 08:32:34;;;;;;;3.70;2.70;;;;;;;9.97;nan;99899.63;4943984;28;20153;-66
2022/10/01 08:35:00;;;;;;;4.15;2.88;;;;;;;9.98;nan;99900.44;4951529;28;20035;-66
2022/10/01 08:37:26;;;;;;;3.92;2.78;;;;;;;9.97;nan;99899.63;4935501;28;20044;-67
2022/10/01 08:39:53;;;;;;;3.80;2.60;;;;;;;9.95;nan;99893.69;4946845;28;20043;-66
2022/10/01 08:42:46;;;;;;;5.10;2.88;;;;;;;9.96;nan;99870.72;4922415;28;20146;-66
2022/10/01 08:45:19;;;;;;;5.18;3.10;;;;;;;9.98;nan;99842.34;4925346;29;20036;-67
2022/10/01 08:48:10;;;;;;;3.72;2.67;;;;;;;9.97;nan;99844.16;4920852;29;20279;-66
2022/10/01 08:50:51;;;;;;;4.18;2.80;;;;;;;9.99;nan;99841.38;4892417;28;20507;-67
2022/10/01 08:53:25;;;;;;;;;;;;;;;9.98;nan;99855.53;4943552;28;20150;-66
2022/10/01 08:55:53;;;;;;;4.03;2.30;;;;;;;9.98;nan;99888.06;4940018;28;19927;-66
2022/10/01 08:58:27;;;;;;;3.47;2.58;;;;;;;9.98;nan;99898.63;4918166;28;20507;-66
2022/10/01 09:00:54;;;;;;;3.70;2.50;;;;;;;10.00;nan;99901.13;4943324;28;20090;-66
2022/10/01 09:03:19;;;;;;;4.20;2.30;;;;;;;10.00;nan;99925.72;4925784;28;20566;-66
2022/10/01 09:06:09;;;;;;;4.05;2.30;;;;;;;10.03;nan;99910.53;4920881;29;20051;-66
2022/10/01 09:08:51;;;;;;;3.65;2.35;;;;;;;10.03;nan;99898.13;4910953;28;20054;-66
2022/10/01 09:11:23;;;;;;;;;;;;;;;10.05;nan;99900.63;4923319;28;20169;-66
2022/10/01 09:14:02;;;;;;;3.95;2.20;;;;;;;10.07;nan;99896.00;4930970;28;19929;-67
2022/10/01 09:16:37;;;;;;;3.78;2.53;;;;;;;10.08;nan;99882.66;4926733;29;20202;-66
2022/10/01 09:19:15;;;;;;;3.75;2.50;;;;;;;10.10;nan;99871.91;4927637;28;20043;-66
2022/10/01 09:21:56;;;;;;;3.83;2.50;;;;;;;10.14;nan;99878.50;4922131;29;20075;-66
2022/10/01 09:24:45;;;;;;;3.22;2.30;;;;;;;10.13;nan;99897.97;4924957;28;20051;-67
2022/10/01 09:27:21;;;;;;;3.40;2.20;;;;;;;10.13;nan;99909.41;4923292;28;20527;-66
2022/10/01 09:29:52;;;;;;;3.15;2.22;;;;;;;10.19;nan;99907.91;4928271;28;20039;-67
2022/10/01 09:32:34;;;;;;;4.60;2.22;;;;;;;10.24;nan;99900.31;4914556;28;20052;-67
2022/10/01 09:35:06;;;;;;;3.08;2.28;;;;;;;10.32;nan;99915.34;4930314;28;20048;-66
2022/10/01 09:37:56;;;;;;;5.32;2.50;;;;;;;10.34;nan;99895.69;4915611;29;20075;-67
2022/10/01 09:40:40;;;;;;;4.32;2.50;;;;;;;10.35;nan;99902.66;4916878;28;20071;-67
2022/10/01 09:43:08;;;;;;;2.60;2.10;;;;;;;10.33;nan;99888.78;4921627;28;20122;-67
2022/10/01 09:45:33;;;;;;;4.93;2.30;;;;;;;10.38;nan;99909.41;4923722;28;20047;-67
2022/10/01 09:48:14;;;;;;;3.45;2.10;;;;;;;10.37;nan;99908.59;4922121;28;20086;-67
2022/10/01 09:50:47;;;;;;;4.00;2.47;;;;;;;10.43;nan;99908.94;4920337;28;20058;-67
2022/10/01 09:53:18;;;;;;;3.45;2.15;;;;;;;10.46;nan;99906.75;4926248;29;20473;-67
2022/10/01 09:55:49;;;;;;;2.87;2.27;;;;;;;10.51;nan;99900.97;4919464;28;20563;-67
2022/10/01 09:58:22;;;;;;;3.83;2.28;;;;;;;10.54;nan;99906.78;4917111;29;20044;-67
2022/10/01 10:00:50;;;;;;;2.47;2.08;;;;;;;10.59;nan;99908.91;4926824;29;20493;-67
2022/10/01 10:03:24;;;;;;;3.75;2.10;;;;;;;10.70;nan;99913.03;4924900;28;20515;-67
2022/10/01 10:05:49;;;;;;;3.45;2.13;;;;;;;10.80;nan;99908.41;4930500;28;20090;-67
2022/10/01 10:08:29;;;;;;;2.58;1.90;;;;;;;10.85;nan;99900.78;4914471;28;20057;-67
2022/10/01 10:10:59;;;;;;;4.18;2.28;;;;;;;10.92;nan;99900.94;4929099;28;20043;-67
2022/10/01 10:13:33;;;;;;;3.17;1.73;;;;;;;10.98;nan;99893.13;4919063;29;20031;-67
2022/10/01 10:16:06;;;;;;;3.42;2.10;;;;;;;11.10;nan;99900.69;4937699;28;20300;-67
2022/10/01 10:18:34;;;;;;;3.25;2.15;;;;;;;11.23;nan;99901.81;4925191;29;20040;-67
2022/10/01 10:21:03;;;;;;;3.20;1.90;;;;;;;11.36;nan;99905.72;4919903;29;20028;-66
2022/10/01 10:23:28;;;;;;;2.42;1.67;;;;;;;11.48;nan;99913.09;4923029;28;20071;-67
2022/10/01 10:25:59;;;;;;;3.22;1.80;;;;;;;11.59;nan;99906.63;4919167;28;20068;-67
2022/10/01 10:28:29;;;;;;;4.55;1.88;;;;;;;11.73;nan;99898.91;4918702;29;20471;-67
2022/10/01 10:30:56;;;;;;;2.47;1.85;;;;;;;11.91;nan;99902.16;4917389;28;20028;-67
2022/10/01 10:33:25;;;;;;;2.40;1.67;;;;;;;11.99;nan;99896.81;4921002;28;20094;-67
2022/10/01 10:36:03;;;;;;;4.60;1.70;;;;;;;11.96;nan;99906.91;4924218;28;20056;-67
2022/10/01 10:38:33;;;;;;;2.30;1.60;;;;;;;12.01;nan;99916.00;4911062;28;20090;-67
2022/10/01 10:41:00;;;;;;;2.38;1.60;;;;;;;12.04;nan;99920.13;4919045;28;20060;-67
2022/10/01 10:43:33;;;;;;;2.30;1.50;;;;;;;11.98;nan;99920.81;4933199;28;20110;-66
2022/10/01 10:45:59;;;;;;;3.05;1.40;;;;;;;11.98;nan;99926.13;4936115;28;20127;-66
2022/10/01 10:48:34;;;;;;;4.05;1.70;;;;;;;11.93;nan;99924.00;4928231;28;20511;-66
2022/10/01 10:51:02;;;;;;;2.35;1.60;;;;;;;11.84;nan;99930.31;4941247;29;20071;-68
2022/10/01 10:53:37;;;;;;;2.30;1.40;;;;;;;11.94;nan;99930.13;4929710;28;20440;-68
2022/10/01 10:56:05;;;;;;;1.88;1.30;;;;;;;12.01;nan;99933.72;4920217;28;20437;-68
2022/10/01 10:58:36;;;;;;;;;;;;;;;11.93;nan;99925.81;4930675;28;20267;-66
2022/10/01 11:01:08;;;;;;;;;;;;;;;11.95;nan;99927.31;4939433;28;19915;-66
2022/10/01 11:03:35;;;;;;;;;;;;;;;11.93;nan;99929.28;4932100;28;19926;-66
2022/10/01 11:06:11;;;;;;;;;;;;;;;11.97;nan;99927.97;4930393;28;20340;-66
2022/10/01 11:08:37;;;;;;;;;;;;;;;12.00;nan;99935.53;4925479;28;19927;-66
2022/10/01 11:11:05;;;;;;;;;;;;;;;11.98;nan;99932.25;4934399;28;21088;-66
2022/10/01 11:13:49;;;;;;;;;;;;;;;11.96;nan;99920.16;4915176;29;20464;-66
2022/10/01 11:16:26;;;;;;;2.22;1.20;;;;;;;12.03;nan;99923.75;4926872;28;19923;-68
2022/10/01 11:19:22;;;;;;;2.35;1.40;;;;;;;12.00;nan;99927.59;4921124;28;20039;-66
2022/10/01 11:22:18;;;;;;;1.63;1.30;;;;;;;12.13;nan;99934.13;4931111;28;20139;-68
2022/10/01 11:25:04;;;;;;;1.75;1.27;;;;;;;12.15;nan;99929.47;4921391;28;20040;-68
2022/10/01 11:27:39;;;;;;;2.38;1.20;;;;;;;12.06;nan;99934.84;4922892;29;20488;-66
2022/10/01 11:30:25;;;;;;;2.53;1.10;;;;;;;12.08;nan;99937.31;4918658;28;20051;-68
2022/10/01 11:32:53;;;;;;;1.75;1.00;;;;;;;12.06;nan;99944.59;4911307;29;20382;-68
2022/10/01 11:35:36;;;;;;;1.45;1.00;;;;;;;11.98;nan;99948.13;4925112;28;20110;-68
2022/10/01 11:38:14;;;;;;;2.80;1.10;;;;;;;12.01;nan;99937.22;4931873;28;20404;-68
2022/10/01 11:40:42;;;;;;;1.60;0.93;;;;;;;12.01;nan;99950.47;4924620;28;20440;-68
2022/10/01 11:43:35;;;;;;;2.38;1.10;;;;;;;12.00;nan;99940.84;4924854;28;20040;-68
2022/10/01 11:46:22;;;;;;;1.08;0.80;;;;;;;12.14;nan;99935.81;4918656;29;20423;-68
2022/10/01 11:48:56;;;;;;;1.33;0.90;;;;;;;12.14;nan;99939.28;4930754;28;20029;-68
2022/10/01 11:51:30;;;;;;;1.30;0.80;;;;;;;12.15;nan;99940.91;4931644;28;20039;-67
2022/10/01 11:54:02;;;;;;;1.27;0.82;;;;;;;12.19;nan;99939.56;4935366;28;20036;-67
2022/10/01 11:59:40;;;;;;;1.40;0.90;;;;;;;12.48;nan;99938.00;4918427;29;20770;-67
2022/10/01 12:02:25;;;;;;;2.53;1.00;;;;;;;12.50;nan;99934.19;4928445;28;20047;-69
2022/10/01 12:04:57;;;;;;;;;;;;;;;12.48;nan;99938.00;4925739;28;20138;-67
2022/10/01 12:07:48;;;;;;;1.90;0.93;;;;;;;12.47;nan;99939.84;4920083;29;19981;-67
2022/10/01 12:10:13;;;;;;;;;;;;;;;12.43;nan;99940.38;4920643;28;20370;-68
2022/10/01 12:12:51;;;;;;;1.83;1.00;;;;;;;12.37;nan;99946.38;4921555;29;19929;-67
2022/10/01 12:15:22;;;;;;;1.45;0.90;;;;;;;12.37;nan;99952.53;4917910;29;20120;-67
2022/10/01 12:18:09;;;;;;;2.13;1.10;;;;;;;12.31;nan;99943.44;4933489;28;20536;-67